createdAt,value
2022-07-26T00:00:48.249Z,99.90
2022-07-26T00:03:15.597Z,99.90
2022-07-26T00:05:43.507Z,99.90
2022-07-26T00:08:11.030Z,99.60
2022-07-26T00:10:45.133Z,98.70
2022-07-26T00:13:12.669Z,99.10
2022-07-26T00:15:39.848Z,98.50
2022-07-26T00:18:11.931Z,98.30
2022-07-26T00:20:40.294Z,98.20
2022-07-26T00:23:09.366Z,98.30
2022-07-26T00:25:37.204Z,98.00
2022-07-26T00:28:05.266Z,98.00
2022-07-26T00:30:32.926Z,98.00
2022-07-26T00:33:00.411Z,98.00
2022-07-26T00:35:27.668Z,98.20
2022-07-26T00:37:54.737Z,98.20
2022-07-26T00:40:22.375Z,98.30
2022-07-26T00:42:49.649Z,98.40
2022-07-26T00:45:17.583Z,98.40
2022-07-26T00:47:45.136Z,98.40
2022-07-26T00:50:16.319Z,98.40
2022-07-26T00:52:45.039Z,98.50
2022-07-26T00:55:12.944Z,98.50
2022-07-26T00:57:41.847Z,98.30
2022-07-26T01:00:12.686Z,98.20
2022-07-26T01:02:41.141Z,98.20
2022-07-26T01:05:08.751Z,98.30
2022-07-26T01:07:37.373Z,98.00
2022-07-26T01:10:06.637Z,98.50
2022-07-26T01:12:33.859Z,98.20
2022-07-26T01:15:00.975Z,98.20
2022-07-26T01:17:28.303Z,98.20
2022-07-26T01:19:55.591Z,98.20
2022-07-26T01:22:22.784Z,98.20
2022-07-26T01:24:50.112Z,98.10
2022-07-26T01:27:17.794Z,98.10
2022-07-26T01:29:44.973Z,98.20
2022-07-26T01:32:12.034Z,98.20
2022-07-26T01:34:39.346Z,98.20
2022-07-26T01:37:06.968Z,98.20
2022-07-26T01:39:34.256Z,98.20
2022-07-26T01:42:01.699Z,98.30
2022-07-26T01:44:28.834Z,98.10
2022-07-26T01:46:55.988Z,98.40
2022-07-26T01:49:23.316Z,98.30
2022-07-26T01:51:50.733Z,98.40
2022-07-26T01:54:22.533Z,98.30
2022-07-26T01:56:51.823Z,98.30
2022-07-26T01:59:19.067Z,98.30
2022-07-26T02:01:46.163Z,98.40
2022-07-26T02:04:33.414Z,98.30
2022-07-26T02:07:00.799Z,98.30
2022-07-26T02:09:33.034Z,98.30
2022-07-26T02:12:07.547Z,98.30
2022-07-26T02:14:34.784Z,98.20
2022-07-26T02:17:01.967Z,98.00
2022-07-26T02:19:30.113Z,97.90
2022-07-26T02:21:57.809Z,98.00
2022-07-26T02:24:29.003Z,98.00
2022-07-26T02:26:57.622Z,98.00
2022-07-26T02:29:25.373Z,97.90
2022-07-26T02:31:53.282Z,97.80
2022-07-26T02:34:20.813Z,97.70
2022-07-26T02:36:48.038Z,97.80
2022-07-26T02:39:15.478Z,97.80
2022-07-26T02:41:43.262Z,97.80
2022-07-26T02:44:10.902Z,97.70
2022-07-26T02:46:38.923Z,97.80
2022-07-26T02:49:06.474Z,97.80
2022-07-26T02:51:33.927Z,97.90
2022-07-26T02:54:01.066Z,97.90
2022-07-26T02:56:28.618Z,98.00
2022-07-26T02:58:56.004Z,97.90
2022-07-26T03:01:24.799Z,97.90
2022-07-26T03:03:52.154Z,97.90
2022-07-26T03:06:19.952Z,97.90
2022-07-26T03:08:48.629Z,97.90
2022-07-26T03:11:16.367Z,97.90
2022-07-26T03:13:43.846Z,98.00
2022-07-26T03:16:11.121Z,97.60
2022-07-26T03:18:38.990Z,97.70
2022-07-26T03:21:06.420Z,97.70
2022-07-26T03:23:35.001Z,97.70
2022-07-26T03:26:03.178Z,97.70
2022-07-26T03:28:34.151Z,97.60
2022-07-26T03:31:02.218Z,97.70
2022-07-26T03:33:30.598Z,97.70
2022-07-26T03:35:57.859Z,97.70
2022-07-26T03:38:25.103Z,97.60
2022-07-26T03:40:52.636Z,97.60
2022-07-26T03:43:23.076Z,97.50
2022-07-26T03:45:51.021Z,97.60
2022-07-26T03:48:22.026Z,97.60
2022-07-26T03:50:49.275Z,97.60
2022-07-26T03:53:16.588Z,97.60
2022-07-26T03:56:02.546Z,97.60
2022-07-26T03:58:29.713Z,97.60
2022-07-26T04:00:56.949Z,97.70
2022-07-26T04:03:24.185Z,97.60
2022-07-26T04:05:52.749Z,97.70
2022-07-26T04:08:20.048Z,97.70
2022-07-26T04:10:48.610Z,97.70
2022-07-26T04:13:15.797Z,97.60
2022-07-26T04:15:43.013Z,97.70
2022-07-26T04:18:10.334Z,97.70
2022-07-26T04:20:37.530Z,97.80
2022-07-26T04:23:04.960Z,97.80
2022-07-26T04:25:40.674Z,97.80
2022-07-26T04:28:08.984Z,97.80
2022-07-26T04:30:51.346Z,97.80
2022-07-26T04:33:18.537Z,97.70
2022-07-26T04:35:45.771Z,97.80
2022-07-26T04:38:12.936Z,97.80
2022-07-26T04:40:41.112Z,97.80
2022-07-26T04:43:15.256Z,97.90
2022-07-26T04:45:45.097Z,98.00
2022-07-26T04:48:12.817Z,97.90
2022-07-26T04:50:40.540Z,98.00
2022-07-26T04:53:08.919Z,98.00
2022-07-26T04:55:36.182Z,98.00
2022-07-26T04:58:04.301Z,98.00
2022-07-26T05:00:31.833Z,98.10
2022-07-26T05:03:00.517Z,98.10
2022-07-26T05:05:30.735Z,98.10
2022-07-26T05:08:00.370Z,98.00
2022-07-26T05:10:37.036Z,98.10
2022-07-26T05:13:06.136Z,98.10
2022-07-26T05:15:35.528Z,98.20
2022-07-26T05:18:06.983Z,98.30
2022-07-26T05:20:35.261Z,98.30
2022-07-26T05:23:02.413Z,98.30
2022-07-26T05:25:29.661Z,98.30
2022-07-26T05:27:57.078Z,98.30
2022-07-26T05:30:24.571Z,98.30
2022-07-26T05:32:51.860Z,98.20
2022-07-26T05:35:19.028Z,98.10
2022-07-26T05:37:46.217Z,98.10
2022-07-26T05:40:13.732Z,98.00
2022-07-26T05:42:40.983Z,98.20
2022-07-26T05:45:08.847Z,98.30
2022-07-26T05:47:36.242Z,98.20
2022-07-26T05:50:04.317Z,98.10
2022-07-26T05:52:31.423Z,98.10
2022-07-26T05:54:58.820Z,98.10
2022-07-26T05:57:26.649Z,98.20
2022-07-26T05:59:53.865Z,98.50
2022-07-26T06:02:21.066Z,98.60
2022-07-26T06:04:48.475Z,98.10
2022-07-26T06:07:16.534Z,97.80
2022-07-26T06:09:43.854Z,96.70
2022-07-26T06:12:11.102Z,95.20
2022-07-26T06:14:38.256Z,94.70
2022-07-26T06:17:05.481Z,92.60
2022-07-26T06:19:33.101Z,92.40
2022-07-26T06:22:00.351Z,91.00
2022-07-26T06:24:27.788Z,90.90
2022-07-26T06:27:04.599Z,91.00
2022-07-26T06:29:33.187Z,90.20
2022-07-26T06:32:00.832Z,90.70
2022-07-26T06:34:28.279Z,91.00
2022-07-26T06:36:55.683Z,92.20
2022-07-26T06:39:22.927Z,92.20
2022-07-26T06:41:50.278Z,92.10
2022-07-26T06:44:22.876Z,91.40
2022-07-26T06:46:50.074Z,91.80
2022-07-26T06:49:21.895Z,92.30
2022-07-26T06:51:49.739Z,92.80
2022-07-26T06:54:17.137Z,91.50
2022-07-26T06:56:44.606Z,91.80
2022-07-26T06:59:12.011Z,91.20
2022-07-26T07:01:51.299Z,91.50
2022-07-26T07:04:25.602Z,91.90
2022-07-26T07:06:52.856Z,91.60
2022-07-26T07:09:20.683Z,91.90
2022-07-26T07:11:51.829Z,92.20
2022-07-26T07:14:26.054Z,92.50
2022-07-26T07:16:53.376Z,92.70
2022-07-26T07:19:20.600Z,93.30
2022-07-26T07:21:47.843Z,93.70
2022-07-26T07:24:15.610Z,93.80
2022-07-26T07:26:43.114Z,94.10
2022-07-26T07:29:14.577Z,94.20
2022-07-26T07:31:48.869Z,94.20
2022-07-26T07:34:19.468Z,94.70
2022-07-26T07:36:47.371Z,95.10
2022-07-26T07:39:17.532Z,95.20
2022-07-26T07:41:48.701Z,95.60
2022-07-26T07:44:16.107Z,96.10
2022-07-26T07:46:43.742Z,96.20
2022-07-26T07:49:11.995Z,97.00
2022-07-26T07:51:39.872Z,96.90
2022-07-26T07:54:07.124Z,97.10
2022-07-26T07:56:35.654Z,97.10
2022-07-26T07:59:02.818Z,97.60
2022-07-26T08:01:40.148Z,97.60
2022-07-26T08:04:09.355Z,97.50
2022-07-26T08:06:37.108Z,97.70
2022-07-26T08:09:05.399Z,98.10
2022-07-26T08:11:33.772Z,98.20
2022-07-26T08:14:01.800Z,98.50
2022-07-26T08:16:29.066Z,98.50
2022-07-26T08:18:57.855Z,98.80
2022-07-26T08:21:28.154Z,99.00
2022-07-26T08:23:57.592Z,99.30
2022-07-26T08:26:25.006Z,99.30
2022-07-26T08:29:00.154Z,99.40
2022-07-26T08:31:28.942Z,99.20
2022-07-26T08:33:56.520Z,99.30
2022-07-26T08:36:24.315Z,99.40
2022-07-26T08:38:52.549Z,99.60
2022-07-26T08:41:19.791Z,99.50
2022-07-26T08:43:51.916Z,99.60
2022-07-26T08:46:25.921Z,99.60
2022-07-26T08:48:55.041Z,99.80
2022-07-26T08:51:24.012Z,99.90
2022-07-26T08:53:59.299Z,99.80
2022-07-26T08:56:29.804Z,99.00
2022-07-26T08:58:57.346Z,99.00
2022-07-26T09:01:24.672Z,99.00
2022-07-26T09:03:52.031Z,99.00
2022-07-26T09:06:28.368Z,99.10
2022-07-26T09:09:11.166Z,99.10
2022-07-26T09:11:38.734Z,99.10
2022-07-26T09:14:06.650Z,99.20
2022-07-26T09:16:39.006Z,99.20
2022-07-26T09:19:22.863Z,98.90
2022-07-26T09:21:50.404Z,98.90
2022-07-26T09:24:31.840Z,98.30
2022-07-26T09:27:00.882Z,97.90
2022-07-26T09:29:29.169Z,97.90
2022-07-26T09:32:17.298Z,98.00
2022-07-26T09:34:53.135Z,97.70
2022-07-26T09:37:35.030Z,97.60
2022-07-26T09:40:06.456Z,97.50
2022-07-26T09:42:33.997Z,97.60
2022-07-26T09:45:01.663Z,97.60
2022-07-26T09:47:39.693Z,97.60
2022-07-26T09:50:16.768Z,97.30
2022-07-26T09:53:22.868Z,97.30
2022-07-26T09:55:49.987Z,97.20
2022-07-26T09:58:19.124Z,96.90
2022-07-26T10:00:46.362Z,96.80
2022-07-26T10:03:13.654Z,96.60
2022-07-26T10:05:41.885Z,96.00
2022-07-26T10:08:09.936Z,96.40
2022-07-26T10:11:08.708Z,96.50
2022-07-26T10:13:35.942Z,96.80
2022-07-26T10:16:03.459Z,95.60
2022-07-26T10:18:36.526Z,95.90
2022-07-26T10:21:25.741Z,95.90
2022-07-26T10:23:58.011Z,95.90
2022-07-26T10:26:34.791Z,95.30
2022-07-26T10:29:17.235Z,95.00
2022-07-26T10:31:47.248Z,94.70
2022-07-26T10:34:30.308Z,94.70
2022-07-26T10:37:02.616Z,94.90
2022-07-26T10:39:29.798Z,94.90
2022-07-26T10:42:04.408Z,95.30
2022-07-26T10:44:39.199Z,94.70
2022-07-26T10:47:09.479Z,94.40
2022-07-26T10:49:40.465Z,94.80
2022-07-26T10:52:12.770Z,94.30
2022-07-26T10:55:00.955Z,93.90
2022-07-26T10:57:30.821Z,92.80
2022-07-26T10:59:59.731Z,93.50
2022-07-26T11:02:32.779Z,93.20
2022-07-26T11:05:13.268Z,93.20
2022-07-26T11:07:55.638Z,93.00
2022-07-26T11:10:28.689Z,92.80
2022-07-26T11:13:08.461Z,93.00
2022-07-26T11:15:38.215Z,92.90
2022-07-26T11:18:11.003Z,92.60
2022-07-26T11:20:38.881Z,92.40
2022-07-26T11:23:21.992Z,92.60
2022-07-26T11:26:16.510Z,92.60
2022-07-26T11:28:53.568Z,92.50
2022-07-26T11:31:24.420Z,92.70
2022-07-26T11:34:22.956Z,92.60
2022-07-26T11:36:51.696Z,92.60
2022-07-26T11:39:23.568Z,92.80
2022-07-26T11:41:52.599Z,92.50
2022-07-26T11:44:22.265Z,92.30
2022-07-26T11:46:51.380Z,91.50
2022-07-26T11:49:22.863Z,91.50
2022-07-26T11:52:01.732Z,91.60
2022-07-26T11:54:33.632Z,90.90
2022-07-26T11:57:03.948Z,91.70
2022-07-26T11:59:33.187Z,91.60
2022-07-26T12:02:02.564Z,91.60
2022-07-26T12:04:32.693Z,91.00
2022-07-26T12:07:03.452Z,90.60
2022-07-26T12:09:42.222Z,90.60
2022-07-26T12:12:33.108Z,90.50
2022-07-26T12:15:02.939Z,90.80
2022-07-26T12:17:35.112Z,90.80
2022-07-26T12:20:14.139Z,90.50
2022-07-26T12:22:41.897Z,90.80
2022-07-26T12:25:09.115Z,90.70
2022-07-26T12:27:46.418Z,90.10
2022-07-26T12:30:15.976Z,90.10
2022-07-26T12:32:45.308Z,89.90
2022-07-26T12:35:17.071Z,90.10
2022-07-26T12:37:47.032Z,90.00
2022-07-26T12:40:17.386Z,89.10
2022-07-26T12:42:50.761Z,89.30
2022-07-26T12:45:22.669Z,89.50
2022-07-26T12:47:52.306Z,89.00
2022-07-26T12:50:21.948Z,89.00
2022-07-26T12:52:50.235Z,87.10
2022-07-26T12:55:19.538Z,88.70
2022-07-26T12:57:47.887Z,89.10
2022-07-26T13:00:18.446Z,89.00
2022-07-26T13:02:45.863Z,88.10
2022-07-26T13:05:13.825Z,88.40
2022-07-26T13:07:41.839Z,88.60
2022-07-26T13:12:57.458Z,87.30
2022-07-26T13:15:24.701Z,88.90
2022-07-26T13:18:09.000Z,88.80
2022-07-26T13:20:39.840Z,87.70
2022-07-26T13:23:11.710Z,88.10
2022-07-26T13:25:41.392Z,87.50
2022-07-26T13:28:10.360Z,88.30
2022-07-26T13:30:39.142Z,88.50
2022-07-26T13:33:07.239Z,88.70
2022-07-26T13:35:34.528Z,88.10
2022-07-26T13:38:02.130Z,88.40
2022-07-26T13:40:31.784Z,87.80
2022-07-26T13:42:59.717Z,88.40
2022-07-26T13:45:29.121Z,87.00
2022-07-26T13:47:59.035Z,87.00
2022-07-26T13:50:28.135Z,88.30
2022-07-26T13:52:58.125Z,87.40
2022-07-26T13:55:25.872Z,86.40
2022-07-26T13:57:56.781Z,86.10
2022-07-26T14:00:29.523Z,86.70
2022-07-26T14:03:00.659Z,84.40
2022-07-26T14:05:28.704Z,83.80
2022-07-26T14:07:56.342Z,85.50
2022-07-26T14:10:24.585Z,85.20
2022-07-26T14:12:53.460Z,85.10
2022-07-26T14:15:23.146Z,84.70
2022-07-26T14:17:52.272Z,84.10
2022-07-26T14:20:20.885Z,84.70
2022-07-26T14:22:49.007Z,84.10
2022-07-26T14:25:16.511Z,84.50
2022-07-26T14:27:43.707Z,84.70
2022-07-26T14:30:11.398Z,85.00
2022-07-26T14:32:38.753Z,85.30
2022-07-26T14:35:06.634Z,84.80
2022-07-26T14:37:43.940Z,84.40
2022-07-26T14:40:15.031Z,83.80
2022-07-26T14:42:42.481Z,85.50
2022-07-26T14:45:10.888Z,84.50
2022-07-26T14:47:38.125Z,84.90
2022-07-26T14:50:07.920Z,84.10
2022-07-26T14:52:46.345Z,84.50
2022-07-26T14:55:14.636Z,83.60
2022-07-26T14:57:42.042Z,81.80
2022-07-26T15:00:15.512Z,83.40
2022-07-26T15:02:44.659Z,84.30
2022-07-26T15:05:13.453Z,84.40
2022-07-26T15:07:41.825Z,85.00
2022-07-26T15:10:11.340Z,84.90
2022-07-26T15:12:39.364Z,84.70
2022-07-26T15:15:07.657Z,84.10
2022-07-26T15:17:35.187Z,84.10
2022-07-26T15:20:03.579Z,83.90
2022-07-26T15:22:30.977Z,83.70
2022-07-26T15:24:58.224Z,84.40
2022-07-26T15:27:25.516Z,83.00
2022-07-26T15:29:52.735Z,82.90
2022-07-26T15:32:21.330Z,82.90
2022-07-26T15:34:48.847Z,83.70
2022-07-26T15:37:16.073Z,83.50
2022-07-26T15:39:43.264Z,83.30
2022-07-26T15:42:10.423Z,83.30
2022-07-26T15:44:41.141Z,83.20
2022-07-26T15:47:08.688Z,82.60
2022-07-26T15:49:40.275Z,82.70
2022-07-26T15:52:10.664Z,81.90
2022-07-26T15:54:38.702Z,82.50
2022-07-26T15:57:05.807Z,81.60
2022-07-26T15:59:33.095Z,80.60
2022-07-26T16:02:00.487Z,80.80
2022-07-26T16:04:27.901Z,81.50
2022-07-26T16:06:55.061Z,79.90
2022-07-26T16:09:22.328Z,79.70
2022-07-26T16:11:50.083Z,81.00
2022-07-26T16:14:17.922Z,81.10
2022-07-26T16:16:45.684Z,81.40
2022-07-26T16:19:13.928Z,80.00
2022-07-26T16:21:41.669Z,79.30
2022-07-26T16:24:08.985Z,79.30
2022-07-26T16:26:36.433Z,80.40
2022-07-26T16:29:04.736Z,80.40
2022-07-26T16:31:33.145Z,80.70
2022-07-26T16:34:00.611Z,80.70
2022-07-26T16:36:28.806Z,80.80
2022-07-26T16:38:56.143Z,80.70
2022-07-26T16:41:23.369Z,81.10
2022-07-26T16:43:50.591Z,81.20
2022-07-26T16:46:18.123Z,82.20
2022-07-26T16:48:45.311Z,82.60
2022-07-26T16:51:13.774Z,82.50
2022-07-26T16:53:41.414Z,82.40
2022-07-26T16:56:09.524Z,81.60
2022-07-26T16:58:37.755Z,81.50
2022-07-26T17:01:05.123Z,82.10
2022-07-26T17:03:32.432Z,82.80
2022-07-26T17:06:06.091Z,82.20
2022-07-26T17:08:33.960Z,81.00
2022-07-26T17:11:01.448Z,81.50
2022-07-26T17:13:28.765Z,82.30
2022-07-26T17:15:56.331Z,82.00
2022-07-26T17:18:23.642Z,81.30
2022-07-26T17:20:50.979Z,81.70
2022-07-26T17:23:21.281Z,81.90
2022-07-26T17:25:48.435Z,82.00
2022-07-26T17:28:15.703Z,81.70
2022-07-26T17:30:42.992Z,82.30
2022-07-26T17:33:10.655Z,82.30
2022-07-26T17:35:37.919Z,82.20
2022-07-26T17:38:05.297Z,81.90
2022-07-26T17:40:33.807Z,81.70
2022-07-26T17:43:01.131Z,82.30
2022-07-26T17:45:28.525Z,82.30
2022-07-26T17:47:55.957Z,82.40
2022-07-26T17:50:38.865Z,82.80
2022-07-26T17:53:06.472Z,83.10
2022-07-26T17:55:33.789Z,83.40
2022-07-26T17:58:00.931Z,82.70
2022-07-26T18:00:28.796Z,82.60
2022-07-26T18:02:56.789Z,82.10
2022-07-26T18:05:29.983Z,82.70
2022-07-26T18:08:00.174Z,82.50
2022-07-26T18:10:28.245Z,82.20
2022-07-26T18:12:55.714Z,81.80
2022-07-26T18:15:22.991Z,82.10
2022-07-26T18:17:50.331Z,82.50
2022-07-26T18:20:17.567Z,82.70
2022-07-26T18:22:45.753Z,82.80
2022-07-26T18:25:17.381Z,82.70
2022-07-26T18:27:44.601Z,82.50
2022-07-26T18:30:11.997Z,82.50
2022-07-26T18:32:39.166Z,83.10
2022-07-26T18:35:06.551Z,83.20
2022-07-26T18:37:33.844Z,83.00
2022-07-26T18:40:01.032Z,82.90
2022-07-26T18:42:28.227Z,83.30
2022-07-26T18:44:55.605Z,83.60
2022-07-26T18:47:23.135Z,83.50
2022-07-26T18:49:50.746Z,83.70
2022-07-26T18:52:28.666Z,83.60
2022-07-26T18:55:06.935Z,83.70
2022-07-26T18:57:38.958Z,83.70
2022-07-26T19:00:15.736Z,83.60
2022-07-26T19:02:44.503Z,83.90
2022-07-26T19:05:11.960Z,84.20
2022-07-26T19:07:39.560Z,84.30
2022-07-26T19:10:09.559Z,85.10
2022-07-26T19:12:37.441Z,85.00
2022-07-26T19:15:06.476Z,84.90
2022-07-26T19:17:34.377Z,85.10
2022-07-26T19:20:02.024Z,85.10
2022-07-26T19:22:30.403Z,85.20
2022-07-26T19:24:58.011Z,85.40
2022-07-26T19:27:25.534Z,85.70
2022-07-26T19:29:52.715Z,85.90
2022-07-26T19:32:19.924Z,86.70
2022-07-26T19:34:47.229Z,86.50
2022-07-26T19:37:21.109Z,86.50
2022-07-26T19:39:49.103Z,86.50
2022-07-26T19:42:17.061Z,86.90
2022-07-26T19:44:45.737Z,87.40
2022-07-26T19:47:14.245Z,87.50
2022-07-26T19:49:41.854Z,87.40
2022-07-26T19:52:11.741Z,87.60
2022-07-26T19:54:39.598Z,87.60
2022-07-26T19:57:08.031Z,87.80
2022-07-26T19:59:35.323Z,88.30
2022-07-26T20:02:03.059Z,88.30
2022-07-26T20:04:30.254Z,88.00
2022-07-26T20:06:57.495Z,88.40
2022-07-26T20:09:24.759Z,89.40
2022-07-26T20:11:52.042Z,89.00
2022-07-26T20:14:20.165Z,89.00
2022-07-26T20:16:50.525Z,89.20
2022-07-26T20:19:21.318Z,89.20
2022-07-26T20:21:48.772Z,89.30
2022-07-26T20:24:15.884Z,89.50
2022-07-26T20:26:43.147Z,89.60
2022-07-26T20:29:11.590Z,90.00
2022-07-26T20:31:39.025Z,90.00
2022-07-26T20:34:06.797Z,90.10
2022-07-26T20:36:33.891Z,90.30
2022-07-26T20:39:01.997Z,90.60
2022-07-26T20:41:33.736Z,90.30
2022-07-26T20:44:01.437Z,90.30
2022-07-26T20:46:28.738Z,90.30
2022-07-26T20:48:56.326Z,90.40
2022-07-26T20:51:23.664Z,90.50
2022-07-26T20:53:50.799Z,90.40
2022-07-26T20:56:17.976Z,90.70
2022-07-26T20:58:45.086Z,90.80
2022-07-26T21:01:13.896Z,91.00
2022-07-26T21:03:41.503Z,90.70
2022-07-26T21:06:09.021Z,90.80
2022-07-26T21:08:36.576Z,90.70
2022-07-26T21:11:04.194Z,90.90
2022-07-26T21:13:34.129Z,91.00
2022-07-26T21:16:01.224Z,91.00
2022-07-26T21:18:32.862Z,90.80
2022-07-26T21:21:01.616Z,90.90
2022-07-26T21:23:28.833Z,90.80
2022-07-26T21:26:00.273Z,90.90
2022-07-26T21:28:28.466Z,91.00
2022-07-26T21:30:55.784Z,91.10
2022-07-26T21:33:23.001Z,91.30
2022-07-26T21:35:50.240Z,91.20
2022-07-26T21:38:17.484Z,91.30
2022-07-26T21:40:44.776Z,91.20
2022-07-26T21:43:11.983Z,91.30
2022-07-26T21:45:39.576Z,91.50
2022-07-26T21:48:07.167Z,91.40
2022-07-26T21:50:34.676Z,91.50
2022-07-26T21:53:01.911Z,91.50
2022-07-26T21:55:29.236Z,91.50
2022-07-26T21:57:56.323Z,91.50
2022-07-26T22:00:23.712Z,91.80
2022-07-26T22:02:51.122Z,91.70
2022-07-26T22:05:37.311Z,91.70
2022-07-26T22:08:12.966Z,91.80
2022-07-26T22:10:44.690Z,92.00
2022-07-26T22:13:14.221Z,92.00
2022-07-26T22:15:41.811Z,91.90
2022-07-26T22:18:09.996Z,92.00
2022-07-26T22:20:37.463Z,92.10
2022-07-26T22:23:09.711Z,92.10
2022-07-26T22:25:37.861Z,92.20
2022-07-26T22:28:06.658Z,92.10
2022-07-26T22:30:33.868Z,92.50
2022-07-26T22:33:02.661Z,92.70
2022-07-26T22:35:35.000Z,92.30
2022-07-26T22:38:09.153Z,92.30
2022-07-26T22:40:37.550Z,92.40
2022-07-26T22:43:05.611Z,92.40
2022-07-26T22:45:33.811Z,92.50
2022-07-26T22:48:03.115Z,92.50
2022-07-26T22:50:31.248Z,92.50
2022-07-26T22:53:00.933Z,92.60
2022-07-26T22:55:28.585Z,92.50
2022-07-26T22:57:55.736Z,92.60
2022-07-26T23:00:23.621Z,92.60
2022-07-26T23:02:50.940Z,92.70
2022-07-26T23:05:18.097Z,93.00
2022-07-26T23:07:47.966Z,92.70
2022-07-26T23:10:16.588Z,92.70
2022-07-26T23:12:44.168Z,92.80
2022-07-26T23:15:12.201Z,92.90
2022-07-26T23:17:39.882Z,92.90
2022-07-26T23:20:08.880Z,92.90
2022-07-26T23:22:36.229Z,93.00
2022-07-26T23:25:03.873Z,92.90
2022-07-26T23:27:31.099Z,93.00
2022-07-26T23:29:58.229Z,93.00
2022-07-26T23:32:25.412Z,93.10
2022-07-26T23:34:52.508Z,93.00
2022-07-26T23:37:20.055Z,93.00
2022-07-26T23:39:47.210Z,93.20
2022-07-26T23:42:14.335Z,93.20
2022-07-26T23:44:41.571Z,93.10
2022-07-26T23:47:08.826Z,93.10
2022-07-26T23:49:35.994Z,93.30
2022-07-26T23:52:03.299Z,93.40
2022-07-26T23:54:30.559Z,93.30
2022-07-26T23:56:57.686Z,93.30
2022-07-26T23:59:24.819Z,93.50
